Time;durP1;ratioP1;P1;durP2;ratioP2;P2;SDS_P1;SDS_P2;PMS_P1;PMS_P2;Temp;Humidity;BMP_temperature;BMP_pressure;BME280_temperature;BME280_humidity;BME280_pressure;Samples;Min_cycle;Max_cycle;Signal;HPM_P1;HPM_P2
2021/05/10 00:01:23;;;;;;;11.85;10.05;;;;;;;15.91;100.00;99962.97;3579645;40;20041;-63
2021/05/10 00:03:49;;;;;;;13.73;9.88;;;;;;;15.72;100.00;99955.44;3580470;40;20056;-62
2021/05/10 00:06:15;;;;;;;11.25;10.05;;;;;;;15.86;100.00;99964.59;3579444;40;20439;-62
2021/05/10 00:08:42;;;;;;;16.13;10.10;;;;;;;15.79;100.00;99939.28;3581374;40;20047;-62
2021/05/10 00:11:10;;;;;;;13.32;10.30;;;;;;;15.86;100.00;99942.91;3579960;40;20813;-63
2021/05/10 00:13:39;;;;;;;13.27;10.20;;;;;;;15.82;100.00;99947.84;3580145;40;20411;-62
2021/05/10 00:16:05;;;;;;;17.50;10.48;;;;;;;15.78;100.00;99941.13;3581274;40;20048;-62
2021/05/10 00:18:31;;;;;;;11.88;9.88;;;;;;;15.88;100.00;99947.06;3581913;40;20073;-62
2021/05/10 00:20:57;;;;;;;14.75;10.45;;;;;;;15.85;100.00;99931.19;3579756;40;20391;-62
2021/05/10 00:23:23;;;;;;;13.90;10.15;;;;;;;15.90;100.00;99944.16;3579258;40;20153;-62
2021/05/10 00:25:49;;;;;;;14.93;10.32;;;;;;;15.83;100.00;99938.69;3580723;40;20033;-64
2021/05/10 00:28:16;;;;;;;11.88;9.85;;;;;;;15.75;100.00;99946.91;3580459;40;20056;-66
2021/05/10 00:30:42;;;;;;;13.13;10.70;;;;;;;15.71;100.00;99945.63;3579899;40;20068;-62
2021/05/10 00:33:08;;;;;;;16.15;11.13;;;;;;;15.81;100.00;99946.19;3579648;40;20521;-66
2021/05/10 00:35:35;;;;;;;13.85;11.18;;;;;;;15.80;100.00;99949.06;3580006;40;20100;-64
2021/05/10 00:38:01;;;;;;;15.63;12.40;;;;;;;15.79;100.00;99950.13;3581061;40;20043;-63
2021/05/10 00:40:29;;;;;;;15.50;12.13;;;;;;;15.53;100.00;99948.75;3580839;40;20049;-62
2021/05/10 00:42:56;;;;;;;15.70;11.57;;;;;;;15.54;100.00;99934.16;3579528;40;20087;-62
2021/05/10 00:45:23;;;;;;;13.80;12.02;;;;;;;15.65;100.00;99933.69;3579846;40;20063;-64
2021/05/10 00:47:50;;;;;;;15.45;11.73;;;;;;;15.74;100.00;99924.38;3580540;40;20049;-63
2021/05/10 00:50:17;;;;;;;14.70;11.27;;;;;;;15.70;100.00;99920.38;3579309;40;20274;-62
2021/05/10 00:52:44;;;;;;;13.90;10.90;;;;;;;15.79;100.00;99917.56;3580772;40;20061;-63
2021/05/10 00:55:12;;;;;;;13.13;10.43;;;;;;;15.67;100.00;99912.63;3579921;40;20045;-64
2021/05/10 00:57:42;;;;;;;13.18;10.60;;;;;;;15.69;100.00;99904.28;3579950;40;20060;-62
2021/05/10 01:00:10;;;;;;;13.52;10.20;;;;;;;15.67;100.00;99901.75;3579154;40;20303;-63
2021/05/10 01:02:37;;;;;;;12.35;10.13;;;;;;;15.71;100.00;99894.09;3580301;40;20040;-62
2021/05/10 01:05:05;;;;;;;12.90;10.30;;;;;;;15.69;100.00;99893.44;3580094;40;20061;-63
2021/05/10 01:07:31;;;;;;;11.13;9.38;;;;;;;15.63;100.00;99895.03;3582695;40;20061;-62
2021/05/10 01:09:57;;;;;;;11.20;9.98;;;;;;;15.67;100.00;99895.50;3581603;40;20315;-63
2021/05/10 01:12:24;;;;;;;11.40;10.20;;;;;;;15.57;100.00;99887.69;3582414;40;20052;-62
2021/05/10 01:14:50;;;;;;;14.00;10.45;;;;;;;15.57;100.00;99885.78;3581747;40;20057;-64
2021/05/10 01:17:16;;;;;;;11.52;9.88;;;;;;;15.64;100.00;99883.16;3581923;40;20064;-64
2021/05/10 01:19:43;;;;;;;12.93;9.70;;;;;;;15.50;100.00;99878.63;3581925;40;20029;-62
2021/05/10 01:22:11;;;;;;;11.32;9.63;;;;;;;15.53;100.00;99883.66;3579013;40;20047;-64
2021/05/10 01:24:38;;;;;;;10.73;9.50;;;;;;;15.48;100.00;99875.28;3581146;40;20056;-62
2021/05/10 01:27:05;;;;;;;12.20;10.00;;;;;;;15.49;100.00;99874.22;3581214;40;20062;-64
2021/05/10 01:29:31;;;;;;;12.45;9.80;;;;;;;15.39;100.00;99875.38;3582138;40;20044;-61
2021/05/10 01:31:57;;;;;;;13.70;9.93;;;;;;;15.55;100.00;99876.19;3580502;40;20118;-62
2021/05/10 01:34:23;;;;;;;9.77;8.25;;;;;;;15.58;100.00;99873.94;3580251;40;20051;-62
2021/05/10 01:36:49;;;;;;;9.50;8.50;;;;;;;15.54;100.00;99869.09;3581750;40;20037;-62
2021/05/10 01:39:15;;;;;;;11.50;9.43;;;;;;;15.61;100.00;99864.56;3582400;40;20303;-63
2021/05/10 01:41:41;;;;;;;13.32;8.88;;;;;;;15.53;100.00;99857.41;3581634;40;20065;-64
2021/05/10 01:44:08;;;;;;;11.52;9.48;;;;;;;15.46;100.00;99852.94;3581110;40;20048;-60
2021/05/10 01:46:34;;;;;;;14.38;10.40;;;;;;;15.42;100.00;99845.19;3580656;40;20079;-63
2021/05/10 01:49:01;;;;;;;12.68;10.48;;;;;;;15.44;100.00;99842.28;3582371;40;20315;-62
2021/05/10 01:51:27;;;;;;;11.95;10.27;;;;;;;15.38;100.00;99827.59;3580884;40;20059;-63
2021/05/10 01:53:53;;;;;;;13.75;10.52;;;;;;;15.45;100.00;99830.41;3580684;40;20056;-62
2021/05/10 01:56:20;;;;;;;12.48;10.82;;;;;;;15.35;100.00;99824.47;3581740;40;20054;-62
2021/05/10 01:58:54;;;;;;;12.07;10.68;;;;;;;15.39;100.00;99823.03;3582057;40;20041;-64
2021/05/10 02:01:21;;;;;;;12.45;10.85;;;;;;;15.26;100.00;99829.16;3579850;40;20040;-62
2021/05/10 02:03:48;;;;;;;15.18;11.68;;;;;;;15.15;100.00;99833.22;3580922;40;20075;-63
2021/05/10 02:06:14;;;;;;;13.75;11.32;;;;;;;15.14;100.00;99830.72;3581307;40;20060;-62
2021/05/10 02:08:40;;;;;;;15.27;11.98;;;;;;;15.05;100.00;99819.97;3580669;40;20057;-63
2021/05/10 02:11:06;;;;;;;14.68;12.45;;;;;;;15.13;100.00;99837.16;3581796;40;20400;-62
2021/05/10 02:13:32;;;;;;;13.43;11.20;;;;;;;15.01;100.00;99825.97;3581461;40;20045;-62
2021/05/10 02:16:00;;;;;;;13.68;11.60;;;;;;;14.96;100.00;99823.84;3581654;40;20049;-62
2021/05/10 02:18:28;;;;;;;16.98;11.15;;;;;;;14.98;100.00;99821.75;3581008;40;20060;-60
2021/05/10 02:20:54;;;;;;;11.68;10.45;;;;;;;15.01;100.00;99809.72;3582569;40;20103;-61
2021/05/10 02:23:22;;;;;;;11.70;10.45;;;;;;;15.14;100.00;99811.72;3580200;40;20051;-62
2021/05/10 02:25:50;;;;;;;14.55;12.23;;;;;;;15.11;100.00;99814.84;3581233;40;20315;-61
2021/05/10 02:28:19;;;;;;;14.85;11.93;;;;;;;15.12;100.00;99795.66;3581407;40;20056;-61
2021/05/10 02:30:45;;;;;;;;;;;;;;;15.22;100.00;99798.03;3579031;40;20057;-61
2021/05/10 02:33:15;;;;;;;15.68;12.57;;;;;;;15.26;100.00;99791.22;3577108;40;19976;-62
2021/05/10 02:35:43;;;;;;;12.13;10.20;;;;;;;15.20;100.00;99792.00;3581976;40;20069;-61
2021/05/10 02:38:10;;;;;;;14.90;12.27;;;;;;;15.28;100.00;99786.41;3581781;40;20056;-62
2021/05/10 02:40:37;;;;;;;18.02;11.35;;;;;;;15.27;100.00;99775.78;3581712;40;20311;-61
2021/05/10 02:43:03;;;;;;;16.17;11.77;;;;;;;15.26;100.00;99784.97;3580569;40;20403;-62
2021/05/10 02:45:30;;;;;;;18.60;12.60;;;;;;;15.24;100.00;99777.03;3581251;40;20089;-61
2021/05/10 02:47:56;;;;;;;16.08;11.90;;;;;;;15.24;100.00;99767.00;3581298;40;20059;-62
2021/05/10 02:50:24;;;;;;;13.52;11.50;;;;;;;15.23;100.00;99772.63;3581926;40;20060;-61
2021/05/10 02:52:52;;;;;;;16.15;12.18;;;;;;;15.27;100.00;99759.50;3580619;40;20065;-61
2021/05/10 02:55:19;;;;;;;14.60;13.10;;;;;;;15.15;100.00;99759.19;3580722;40;20157;-61
2021/05/10 02:57:46;;;;;;;18.35;12.40;;;;;;;15.15;100.00;99745.63;3581203;40;20051;-61
2021/05/10 03:00:15;;;;;;;14.18;11.95;;;;;;;15.13;100.00;99745.00;3580620;40;20041;-62
2021/05/10 03:02:41;;;;;;;14.27;11.82;;;;;;;15.08;100.00;99742.88;3581589;40;20082;-61
2021/05/10 03:05:09;;;;;;;13.55;11.95;;;;;;;15.13;100.00;99747.72;3581745;40;20053;-62
2021/05/10 03:07:37;;;;;;;15.57;13.70;;;;;;;15.06;100.00;99737.66;3579939;40;20041;-61
2021/05/10 03:10:05;;;;;;;14.20;12.70;;;;;;;15.07;100.00;99731.22;3580537;40;20048;-62
2021/05/10 03:12:31;;;;;;;15.52;12.27;;;;;;;15.06;100.00;99737.66;3580357;40;20060;-63
2021/05/10 03:14:57;;;;;;;15.55;12.98;;;;;;;14.95;100.00;99730.03;3580862;40;20045;-62
2021/05/10 03:17:23;;;;;;;16.88;13.40;;;;;;;14.90;100.00;99718.94;3580657;40;20293;-61
2021/05/10 03:19:49;;;;;;;15.68;12.00;;;;;;;14.91;100.00;99717.88;3581045;40;20096;-61
2021/05/10 03:22:15;;;;;;;13.10;11.70;;;;;;;15.02;100.00;99722.81;3579497;40;20062;-61
2021/05/10 03:24:42;;;;;;;15.07;12.10;;;;;;;15.03;100.00;99713.66;3579850;40;20074;-62
2021/05/10 03:27:08;;;;;;;13.82;11.35;;;;;;;15.03;100.00;99715.50;3579198;40;20050;-61
2021/05/10 03:29:34;;;;;;;16.60;12.35;;;;;;;14.95;100.00;99713.75;3580542;40;20048;-60
2021/05/10 03:32:00;;;;;;;14.20;11.38;;;;;;;14.96;100.00;99714.59;3580375;40;20060;-62
2021/05/10 03:34:26;;;;;;;14.88;11.75;;;;;;;15.00;100.00;99724.03;3579343;40;20407;-62
2021/05/10 03:36:53;;;;;;;14.73;11.82;;;;;;;14.94;100.00;99717.50;3579158;40;20048;-61
2021/05/10 03:39:19;;;;;;;12.45;10.50;;;;;;;14.93;100.00;99715.84;3581151;40;20447;-64
2021/05/10 03:41:46;;;;;;;11.13;9.95;;;;;;;14.91;100.00;99719.75;3581570;40;20102;-61
2021/05/10 03:44:11;;;;;;;14.68;10.20;;;;;;;14.88;100.00;99712.84;3581271;40;20052;-64
2021/05/10 03:46:37;;;;;;;12.05;10.60;;;;;;;14.90;100.00;99710.81;3580045;40;20055;-62
2021/05/10 03:49:03;;;;;;;12.90;10.15;;;;;;;14.89;100.00;99703.72;3580890;40;20064;-59
2021/05/10 03:51:29;;;;;;;11.57;9.07;;;;;;;14.93;100.00;99705.00;3581282;40;20048;-61
2021/05/10 03:53:55;;;;;;;12.18;9.00;;;;;;;15.01;100.00;99701.31;3581075;40;20052;-63
2021/05/10 03:56:21;;;;;;;12.52;8.93;;;;;;;15.01;100.00;99702.16;3580935;40;20442;-61
2021/05/10 03:58:48;;;;;;;11.57;8.60;;;;;;;14.96;100.00;99703.75;3579369;40;20049;-61
2021/05/10 04:01:14;;;;;;;11.10;8.30;;;;;;;14.96;100.00;99693.78;3581203;40;20197;-61
2021/05/10 04:03:44;;;;;;;13.38;8.27;;;;;;;15.01;100.00;99696.72;3580756;40;20051;-61
2021/05/10 04:06:21;;;;;;;9.77;7.65;;;;;;;15.07;100.00;99695.97;3580763;40;20048;-60
2021/05/10 04:13:35;;;;;;;11.38;7.15;;;;;;;15.36;100.00;99694.13;3579773;40;20133;-61
2021/05/10 04:14:22;;;;;;;9.98;6.15;;;;;;;15.45;100.00;99696.72;3579602;40;20102;-63
2021/05/10 04:16:48;;;;;;;8.60;5.82;;;;;;;15.52;100.00;99703.84;3580806;40;20056;-60
2021/05/10 04:19:14;;;;;;;11.10;4.57;;;;;;;15.77;100.00;99690.66;3580703;40;20045;-63
2021/05/10 04:21:40;;;;;;;10.73;3.72;;;;;;;16.28;100.00;99700.38;3580934;40;20059;-63
2021/05/10 04:24:07;;;;;;;5.32;3.75;;;;;;;16.69;100.00;99698.63;3579661;40;20063;-63
2021/05/10 04:26:33;;;;;;;11.45;4.20;;;;;;;16.87;100.00;99694.50;3576477;40;20048;-62
2021/05/10 04:28:58;;;;;;;12.93;3.95;;;;;;;17.17;100.00;99695.00;3580428;40;20060;-63
2021/05/10 04:31:25;;;;;;;11.50;4.47;;;;;;;17.20;100.00;99685.59;3581216;40;20065;-61
2021/05/10 04:33:51;;;;;;;12.25;4.18;;;;;;;17.10;100.00;99675.94;3581242;40;20044;-60
2021/05/10 04:36:17;;;;;;;7.72;4.10;;;;;;;17.20;100.00;99686.44;3579589;40;20052;-60
2021/05/10 04:38:44;;;;;;;11.23;4.35;;;;;;;17.12;100.00;99692.06;3578310;40;20049;-63
2021/05/10 04:41:10;;;;;;;7.80;3.75;;;;;;;17.09;100.00;99687.88;3581072;40;20040;-61
2021/05/10 04:43:36;;;;;;;12.20;3.53;;;;;;;17.22;100.00;99694.38;3580228;40;20384;-63
2021/05/10 04:46:02;;;;;;;13.65;4.63;;;;;;;17.32;100.00;99683.91;3581544;40;20298;-61
2021/05/10 04:48:30;;;;;;;11.77;4.53;;;;;;;17.29;100.00;99695.22;3580842;40;20084;-61
2021/05/10 04:50:56;;;;;;;9.85;3.80;;;;;;;17.33;100.00;99699.19;3580787;40;20047;-63
2021/05/10 04:53:23;;;;;;;10.68;4.13;;;;;;;17.33;100.00;99710.06;3580241;40;20051;-61
2021/05/10 04:55:49;;;;;;;11.23;4.30;;;;;;;17.41;100.00;99696.25;3580413;40;20049;-60
2021/05/10 04:58:15;;;;;;;6.78;3.10;;;;;;;17.52;100.00;99698.34;3579289;40;20088;-60
2021/05/10 05:00:41;;;;;;;6.43;3.15;;;;;;;17.62;100.00;99702.53;3580132;40;20399;-61
2021/05/10 05:03:07;;;;;;;7.35;2.90;;;;;;;17.60;100.00;99712.78;3579525;40;20060;-61
2021/05/10 05:05:33;;;;;;;8.63;2.78;;;;;;;17.56;100.00;99709.63;3580972;40;20065;-61
2021/05/10 05:07:59;;;;;;;5.07;1.92;;;;;;;17.66;100.00;99717.38;3580501;40;20049;-62
2021/05/10 05:10:26;;;;;;;3.97;2.25;;;;;;;17.74;100.00;99727.19;3579940;40;20095;-63
2021/05/10 05:12:52;;;;;;;5.80;2.13;;;;;;;17.72;100.00;99738.31;3580254;40;20049;-62
2021/05/10 05:15:19;;;;;;;4.03;1.60;;;;;;;17.86;100.00;99733.69;3579409;40;20053;-61
2021/05/10 05:17:46;;;;;;;4.07;2.00;;;;;;;17.93;100.00;99748.16;3581462;40;20052;-61
2021/05/10 05:20:13;;;;;;;7.68;1.90;;;;;;;17.97;100.00;99748.56;3580324;40;20068;-64
2021/05/10 05:22:40;;;;;;;3.75;2.13;;;;;;;17.90;100.00;99736.84;3579290;40;20080;-62
2021/05/10 05:25:08;;;;;;;3.63;2.03;;;;;;;18.02;100.00;99740.59;3580373;40;20074;-61
2021/05/10 05:27:34;;;;;;;4.30;1.75;;;;;;;18.04;100.00;99749.41;3580683;40;20379;-61
2021/05/10 05:30:00;;;;;;;4.75;2.17;;;;;;;17.77;100.00;99746.69;3579648;40;20048;-61
2021/05/10 05:32:26;;;;;;;4.50;2.13;;;;;;;17.75;100.00;99751.47;3580240;40;20048;-61
2021/05/10 05:34:52;;;;;;;6.13;2.20;;;;;;;17.61;100.00;99749.84;3579591;40;20045;-61
2021/05/10 05:37:18;;;;;;;3.83;2.00;;;;;;;17.56;100.00;99755.88;3579035;40;20062;-61
2021/05/10 05:39:45;;;;;;;3.67;1.83;;;;;;;17.46;100.00;99744.59;3581301;40;20053;-61
2021/05/10 05:42:11;;;;;;;2.92;2.10;;;;;;;17.43;100.00;99751.28;3580244;40;20037;-61
2021/05/10 05:44:38;;;;;;;5.78;1.98;;;;;;;17.41;100.00;99764.25;3579558;40;20129;-61
2021/05/10 05:47:05;;;;;;;4.18;2.53;;;;;;;17.37;100.00;99776.59;3574400;40;20165;-61
2021/05/10 05:49:34;;;;;;;4.38;2.33;;;;;;;17.31;100.00;99820.94;3578837;40;20150;-63
2021/05/10 05:52:02;;;;;;;8.13;2.33;;;;;;;17.33;100.00;99854.22;3580940;40;20053;-61
2021/05/10 05:54:28;;;;;;;5.10;2.63;;;;;;;17.36;100.00;99871.97;3582197;40;20074;-60
2021/05/10 05:56:55;;;;;;;3.08;2.30;;;;;;;17.29;100.00;99891.03;3582799;40;20082;-61
2021/05/10 05:59:21;;;;;;;7.03;2.72;;;;;;;17.29;100.00;99910.88;3579975;40;20121;-60
2021/05/10 06:01:48;;;;;;;8.57;2.45;;;;;;;17.27;100.00;99914.84;3582356;40;20049;-62
2021/05/10 06:04:14;;;;;;;3.58;2.08;;;;;;;17.08;100.00;99930.88;3580354;40;20063;-62
2021/05/10 06:06:40;;;;;;;5.15;1.92;;;;;;;16.93;100.00;99941.03;3582366;40;20130;-62
2021/05/10 06:09:08;;;;;;;2.25;1.70;;;;;;;16.86;100.00;99938.25;3581894;40;20061;-61
2021/05/10 06:11:34;;;;;;;6.07;1.70;;;;;;;16.95;100.00;99936.25;3581690;40;20052;-62
2021/05/10 06:14:01;;;;;;;4.13;1.48;;;;;;;16.91;100.00;99957.53;3581384;40;20315;-63
2021/05/10 06:16:28;;;;;;;3.15;1.40;;;;;;;16.91;100.00;99946.66;3580964;40;20118;-62
2021/05/10 06:18:54;;;;;;;2.83;1.60;;;;;;;16.83;100.00;99949.53;3581978;40;20053;-62
2021/05/10 06:21:20;;;;;;;3.33;1.30;;;;;;;16.82;100.00;99956.00;3581861;40;20060;-61
2021/05/10 06:23:48;;;;;;;2.33;1.45;;;;;;;16.80;100.00;99977.13;3581602;40;20062;-63
2021/05/10 06:26:14;;;;;;;3.92;1.27;;;;;;;16.80;100.00;99964.34;3580678;40;20047;-61
2021/05/10 06:28:40;;;;;;;2.08;0.95;;;;;;;16.72;100.00;99961.78;3581210;40;20057;-62
2021/05/10 06:31:08;;;;;;;1.40;1.08;;;;;;;16.74;100.00;99984.19;3580884;40;20064;-61
2021/05/10 06:33:34;;;;;;;3.15;1.05;;;;;;;16.77;100.00;99972.91;3580779;40;20325;-63
2021/05/10 06:36:00;;;;;;;2.25;1.23;;;;;;;16.75;100.00;99980.41;3580971;40;20319;-61
2021/05/10 06:38:26;;;;;;;2.40;1.00;;;;;;;16.82;100.00;99992.16;3581300;40;20051;-62
2021/05/10 06:40:52;;;;;;;2.50;1.00;;;;;;;16.85;100.00;100006.41;3582167;40;20049;-61
2021/05/10 06:43:18;;;;;;;1.40;0.95;;;;;;;16.93;100.00;99998.97;3582238;40;20117;-62
2021/05/10 06:45:44;;;;;;;2.70;1.00;;;;;;;16.98;100.00;100011.97;3582521;40;20137;-62
2021/05/10 06:48:11;;;;;;;3.50;1.10;;;;;;;17.15;100.00;100017.91;3582351;40;20440;-62
2021/05/10 06:50:37;;;;;;;1.60;1.05;;;;;;;17.33;100.00;99999.19;3582035;40;20072;-61
2021/05/10 06:53:03;;;;;;;3.22;1.02;;;;;;;17.62;100.00;100004.53;3581386;40;21972;-62
2021/05/10 06:55:29;;;;;;;4.03;1.23;;;;;;;17.76;100.00;100003.56;3582158;40;20149;-62
2021/05/10 06:57:55;;;;;;;2.65;1.10;;;;;;;18.00;100.00;100006.78;3581073;40;20436;-61
2021/05/10 07:00:21;;;;;;;1.33;1.00;;;;;;;17.97;100.00;100016.19;3581829;40;20044;-61
2021/05/10 07:02:47;;;;;;;2.42;1.00;;;;;;;17.58;100.00;100023.16;3581478;40;20067;-62
2021/05/10 07:05:13;;;;;;;1.88;1.00;;;;;;;17.21;100.00;100027.16;3580722;40;20056;-63
2021/05/10 07:07:40;;;;;;;2.20;1.20;;;;;;;17.04;100.00;100049.22;3582458;40;20110;-62
2021/05/10 07:10:07;;;;;;;1.30;1.10;;;;;;;17.15;100.00;100050.53;3582018;40;20045;-63
2021/05/10 07:12:33;;;;;;;1.83;1.17;;;;;;;17.13;100.00;100053.47;3582243;40;20053;-63
2021/05/10 07:14:59;;;;;;;1.85;1.10;;;;;;;16.99;100.00;100040.84;3582545;40;20445;-62
2021/05/10 07:17:25;;;;;;;1.98;1.20;;;;;;;16.91;100.00;100028.22;3581305;40;20118;-62
2021/05/10 07:19:51;;;;;;;3.83;1.40;;;;;;;16.84;100.00;100050.91;3581558;40;20045;-63
2021/05/10 07:22:18;;;;;;;3.58;1.50;;;;;;;17.09;100.00;100056.78;3581814;40;20056;-63
2021/05/10 07:24:44;;;;;;;1.42;1.20;;;;;;;17.04;100.00;100048.41;3581292;40;20040;-65
2021/05/10 07:27:10;;;;;;;4.07;1.27;;;;;;;16.81;100.00;100054.88;3581638;40;20455;-64
2021/05/10 07:29:37;;;;;;;3.42;1.30;;;;;;;16.82;100.00;100051.94;3580741;40;20141;-63
2021/05/10 07:32:03;;;;;;;2.67;1.30;;;;;;;17.12;100.00;100054.53;3581340;40;20051;-65
2021/05/10 07:34:29;;;;;;;2.13;1.33;;;;;;;17.45;100.00;100075.63;3581471;40;20067;-63
2021/05/10 07:36:55;;;;;;;2.65;1.40;;;;;;;17.61;100.00;100076.34;3581482;40;20067;-62
2021/05/10 07:39:23;;;;;;;2.60;1.60;;;;;;;17.46;100.00;100066.44;3579935;40;20064;-61
2021/05/10 07:41:49;;;;;;;2.55;1.60;;;;;;;17.69;100.00;100074.28;3582377;40;20137;-61
2021/05/10 07:44:15;;;;;;;2.13;1.60;;;;;;;17.51;100.00;100079.44;3580955;40;20044;-61
2021/05/10 07:46:40;;;;;;;3.58;1.60;;;;;;;17.18;100.00;100093.66;3582175;40;20041;-61
2021/05/10 07:49:06;;;;;;;1.92;1.40;;;;;;;17.54;100.00;100087.19;3581715;40;20055;-61
2021/05/10 07:51:32;;;;;;;1.95;1.42;;;;;;;17.83;100.00;100096.97;3582074;40;20417;-62
2021/05/10 07:53:58;;;;;;;4.32;1.80;;;;;;;18.23;100.00;100088.13;3580819;40;20067;-62
2021/05/10 07:56:26;;;;;;;3.72;1.70;;;;;;;18.39;100.00;100084.19;3581227;40;20063;-62
2021/05/10 07:58:54;;;;;;;5.10;1.80;;;;;;;18.00;100.00;100105.63;3582402;40;20055;-61
2021/05/10 08:01:19;;;;;;;3.70;2.03;;;;;;;17.69;100.00;100087.06;3580658;40;20351;-64
2021/05/10 08:03:46;;;;;;;3.53;1.63;;;;;;;17.08;100.00;100104.88;3581651;40;20049;-61
2021/05/10 08:06:13;;;;;;;3.88;2.00;;;;;;;17.11;100.00;100131.69;3581422;40;20067;-61
2021/05/10 08:08:39;;;;;;;3.92;2.30;;;;;;;17.23;100.00;100115.66;3581793;40;20057;-62
2021/05/10 08:11:05;;;;;;;3.35;1.83;;;;;;;17.15;100.00;100127.53;3581466;40;20060;-62
2021/05/10 08:13:32;;;;;;;3.65;2.08;;;;;;;16.95;100.00;100148.28;3581069;40;20055;-62
2021/05/10 08:15:58;;;;;;;5.25;1.95;;;;;;;16.85;100.00;100153.16;3581492;40;20053;-61
2021/05/10 08:18:24;;;;;;;3.30;1.83;;;;;;;16.69;100.00;100171.41;3581248;40;20065;-63
2021/05/10 08:20:56;;;;;;;3.10;2.28;;;;;;;16.06;100.00;100158.38;3580838;40;20415;-63
2021/05/10 08:23:22;;;;;;;4.05;2.42;;;;;;;15.87;100.00;100167.06;3580430;40;20077;-63
2021/05/10 08:25:49;;;;;;;3.72;2.58;;;;;;;15.75;100.00;100169.38;3581751;40;20041;-65
2021/05/10 08:28:15;;;;;;;3.50;2.70;;;;;;;15.74;100.00;100167.72;3581595;40;20346;-64
2021/05/10 08:30:42;;;;;;;3.20;2.40;;;;;;;15.82;100.00;100169.53;3581584;40;20121;-64
2021/05/10 08:33:08;;;;;;;3.83;2.50;;;;;;;15.79;100.00;100180.75;3580560;40;20051;-63
2021/05/10 08:35:34;;;;;;;6.82;2.38;;;;;;;15.72;100.00;100170.63;3581331;40;20065;-63
2021/05/10 08:38:01;;;;;;;3.70;2.47;;;;;;;15.92;100.00;100175.50;3581933;40;20052;-64
2021/05/10 08:40:28;;;;;;;3.53;2.35;;;;;;;15.90;100.00;100172.97;3581332;40;20052;-65
2021/05/10 08:42:54;;;;;;;5.00;2.35;;;;;;;16.05;100.00;100174.84;3580065;40;20673;-64
2021/05/10 08:45:21;;;;;;;4.00;2.88;;;;;;;15.97;100.00;100189.34;3581079;40;20061;-65
2021/05/10 08:47:48;;;;;;;5.90;2.42;;;;;;;15.79;100.00;100164.47;3581523;40;20068;-63
2021/05/10 08:50:16;;;;;;;3.95;2.08;;;;;;;15.07;100.00;100235.28;3580272;40;20053;-63
2021/05/10 08:52:42;;;;;;;3.13;2.10;;;;;;;14.48;100.00;100259.31;3580612;40;20045;-64
2021/05/10 08:55:13;;;;;;;2.60;2.03;;;;;;;14.16;100.00;100264.69;3581887;40;20103;-63
2021/05/10 08:57:39;;;;;;;4.68;2.05;;;;;;;14.06;100.00;100260.47;3581070;40;20086;-64
2021/05/10 09:00:06;;;;;;;3.58;2.00;;;;;;;13.92;100.00;100271.00;3580857;40;20127;-64
2021/05/10 09:02:33;;;;;;;4.55;2.20;;;;;;;13.93;100.00;100261.03;3580929;40;20077;-63
2021/05/10 09:05:12;;;;;;;3.35;2.10;;;;;;;13.87;100.00;100270.69;3581013;40;20093;-62
2021/05/10 09:07:38;;;;;;;2.72;2.53;;;;;;;13.84;100.00;100279.97;3581021;40;20060;-64
2021/05/10 09:10:06;;;;;;;4.10;2.50;;;;;;;13.73;100.00;100274.09;3580296;40;20056;-65
2021/05/10 09:12:43;;;;;;;2.85;2.38;;;;;;;13.81;100.00;100279.50;3576984;40;20037;-64
2021/05/10 09:15:21;;;;;;;3.97;2.13;;;;;;;14.04;100.00;100281.47;3580283;40;20635;-64
2021/05/10 09:17:49;;;;;;;3.58;2.35;;;;;;;14.17;100.00;100308.81;3581041;40;20089;-68
2021/05/10 09:20:18;;;;;;;4.32;2.28;;;;;;;14.35;100.00;100314.88;3580807;40;20061;-64
2021/05/10 09:22:48;;;;;;;4.75;2.42;;;;;;;14.02;100.00;100322.22;3580353;40;20037;-64
2021/05/10 09:25:15;;;;;;;4.63;2.33;;;;;;;14.14;100.00;100333.53;3580075;40;20044;-66
2021/05/10 09:27:41;;;;;;;3.70;2.38;;;;;;;14.31;100.00;100346.00;3581427;40;20057;-64
2021/05/10 09:30:19;;;;;;;5.72;2.60;;;;;;;14.24;100.00;100336.88;3581504;40;20077;-66
2021/05/10 09:32:48;;;;;;;3.97;2.30;;;;;;;14.36;100.00;100338.19;3582047;40;20412;-63
2021/05/10 09:35:24;;;;;;;5.07;2.53;;;;;;;14.43;100.00;100337.50;3581036;40;20118;-64
2021/05/10 09:38:00;;;;;;;3.17;2.38;;;;;;;14.55;100.00;100330.69;3582261;40;20056;-63
2021/05/10 09:40:29;;;;;;;5.78;2.95;;;;;;;14.88;100.00;100330.56;3581558;40;20082;-62
2021/05/10 09:42:56;;;;;;;3.58;2.70;;;;;;;14.89;100.00;100343.09;3581837;40;20063;-63
2021/05/10 09:45:30;;;;;;;4.35;3.05;;;;;;;14.89;100.00;100359.38;3582002;40;20079;-66
2021/05/10 09:48:07;;;;;;;3.85;2.90;;;;;;;14.78;100.00;100348.91;3581663;40;20077;-64
2021/05/10 09:50:35;;;;;;;3.90;3.40;;;;;;;14.81;100.00;100340.44;3581628;40;20049;-63
2021/05/10 09:53:02;;;;;;;5.90;3.23;;;;;;;14.81;100.00;100345.84;3581915;40;20055;-64
2021/05/10 09:55:47;;;;;;;3.22;2.92;;;;;;;15.03;100.00;100366.75;3581327;40;20386;-63
2021/05/10 09:58:13;;;;;;;5.10;3.17;;;;;;;14.75;100.00;100362.81;3582518;40;20053;-64
2021/05/10 10:00:40;;;;;;;4.25;3.08;;;;;;;14.87;100.00;100372.25;3580840;40;20060;-64
2021/05/10 10:03:23;;;;;;;4.53;3.20;;;;;;;14.88;100.00;100373.94;3581881;40;20060;-63
2021/05/10 10:05:51;;;;;;;3.80;3.05;;;;;;;14.84;100.00;100375.28;3583215;40;20065;-63
2021/05/10 10:08:18;;;;;;;5.53;2.97;;;;;;;15.01;100.00;100390.47;3581997;40;20063;-64
2021/05/10 10:10:44;;;;;;;3.38;2.40;;;;;;;15.06;100.00;100392.63;3582042;40;20484;-64
2021/05/10 10:13:10;;;;;;;5.47;2.42;;;;;;;15.02;100.00;100403.00;3581316;40;20056;-63
2021/05/10 10:15:36;;;;;;;2.67;2.05;;;;;;;14.84;100.00;100399.69;3581255;40;20051;-65
2021/05/10 10:18:04;;;;;;;4.10;2.58;;;;;;;15.09;100.00;100418.53;3581091;40;20033;-65
2021/05/10 10:20:32;;;;;;;4.10;2.10;;;;;;;15.17;100.00;100415.81;3581987;40;20060;-64
2021/05/10 10:22:59;;;;;;;4.30;2.50;;;;;;;15.04;100.00;100419.91;3581905;40;20100;-64
2021/05/10 10:25:26;;;;;;;4.07;2.22;;;;;;;14.96;100.00;100422.69;3581744;40;20070;-65
2021/05/10 10:27:52;;;;;;;6.25;2.33;;;;;;;14.94;100.00;100432.84;3580841;40;20447;-63
2021/05/10 10:30:22;;;;;;;3.75;1.67;;;;;;;15.14;100.00;100440.56;3582350;40;20051;-64
2021/05/10 10:32:50;;;;;;;5.97;2.15;;;;;;;15.29;100.00;100457.75;3581940;40;20409;-63
2021/05/10 10:35:16;;;;;;;3.60;2.20;;;;;;;15.13;100.00;100441.56;3580666;40;20052;-64
2021/05/10 10:37:42;;;;;;;3.85;1.70;;;;;;;15.13;100.00;100452.41;3583108;40;20033;-62
2021/05/10 10:40:17;;;;;;;3.00;1.90;;;;;;;15.01;100.00;100460.09;3582744;40;20307;-63
2021/05/10 10:42:43;;;;;;;4.63;2.13;;;;;;;15.23;100.00;100443.03;3582102;40;20052;-66
2021/05/10 10:45:11;;;;;;;3.17;1.85;;;;;;;15.32;100.00;100454.69;3582165;40;20426;-64
2021/05/10 10:47:46;;;;;;;3.33;1.85;;;;;;;15.06;100.00;100453.13;3582614;40;20064;-63
2021/05/10 10:50:14;;;;;;;3.50;1.60;;;;;;;15.24;100.00;100468.31;3580680;40;20063;-63
2021/05/10 10:52:47;;;;;;;3.90;1.85;;;;;;;15.06;100.00;100472.09;3581879;40;20044;-62
2021/05/10 10:55:22;;;;;;;3.50;2.03;;;;;;;14.89;100.00;100478.59;3581072;40;20044;-62
2021/05/10 10:57:49;;;;;;;4.78;2.20;;;;;;;14.98;100.00;100490.25;3582797;40;20069;-62
2021/05/10 11:00:17;;;;;;;2.67;1.83;;;;;;;14.99;100.00;100500.91;3582193;40;20084;-62
2021/05/10 11:02:46;;;;;;;3.85;2.15;;;;;;;15.09;100.00;100505.28;3581689;40;20364;-63
2021/05/10 11:05:15;;;;;;;8.18;2.42;;;;;;;15.00;100.00;100513.47;3581538;40;20056;-62
2021/05/10 11:07:50;;;;;;;5.57;2.30;;;;;;;14.66;100.00;100511.84;3581089;40;20133;-63
2021/05/10 11:10:43;;;;;;;4.43;2.53;;;;;;;14.69;100.00;100514.19;3581769;40;20517;-62
2021/05/10 11:13:09;;;;;;;4.43;2.70;;;;;;;14.76;100.00;100522.47;3581561;40;20087;-62
2021/05/10 11:15:48;;;;;;;5.88;2.75;;;;;;;14.77;100.00;100528.75;3581937;40;20056;-63
2021/05/10 11:18:43;;;;;;;;;;;;;;;14.64;100.00;100518.44;3583230;40;20048;-64
2021/05/10 11:21:30;;;;;;;5.57;3.45;;;;;;;14.26;100.00;100521.63;3557897;40;19943;-66